Airfield :







YOU CAN JOIN US ON...

 
LOGIN :

Register | Disclaimer

   EN    FR    IT 

 









Legend :    VFR   Marginal VFR   IFR   Intensive IFR   Very Intensive IFR
Visi :
Ceiling :
>= 8 km
>= 3000ft
5 to 8 km
1000 to 3000 ft
1500m to 5 km
500 to 1000 ft
800 to 1500m
200 to 500 ft
< 800m
< 200 ft
Symbols :   Thunderstorms  Fog  Heavy snow  Heavy precipitations  Wind > 20 kt






- Airport Elevation : 171 ft
- IATA code : KEF


BIKF - Keflavik International

CURRENT METAR :
  • 130830Z 19020KT 2500 -DZRA BR OVC002 11/11 Q1010

EXPIRED METARs :
  • 130800Z 19020KT 4700 -RA BR OVC002 11/11 Q1011
  • 130730Z 18020KT 3100 -DZ BR OVC003 10/10 Q1011
  • 130700Z 18019KT 2700 -DZ BR OVC003 11/11 Q1011
  • 130630Z 19019KT 2200 -DZ BR OVC003 10/10 Q1011
  • 130600Z 18019KT 5000 -DZ BR OVC002 10/10 Q1012

TAF TAF BIKF
Valid from the 13 at 09:00 until the 14 at 09:00 UTC


130740Z 1309/1409 20018KT 1500 -RADZ BR OVC005 TX11/1313Z TN08/1406Z
TEMPO 1309/1318 0500 RADZ FG VV002
BECMG 1318/1320 27012KT
BECMG 1320/1322 9999 NSW OVC012
BECMG 1403/1405 SCT016



MET'MAP, your aeronautical weather chart ! - Copyright ORBIFLY December 2007 - Disclaimer

ORBIFLY MET'MAP TEAM :

Programming & Development : Alexandra Zaïnal
Concept & original design : Baudouin d'Aumeries
Assistance for programming : Marc-Olivier Méhu
Technical & hardware support : Manuel Goepfert

Contact : metmap@orbifly.com




SOURCES & CREDITS :

   NOAA